Amesbury, Massachusetts
Current Conditions -  °F | °C
As of 12:14 AM on Friday 28 Nov 2014 (Local Time) from KLWM Reporting Station
Light Snow Light Snow  
Wind Chill: 22°   Ceiling: 800
Heat Index: 29°   Visibility: 2.5mi
Dew Point: 27°   Wind: 7mph
Humidity: 92%   Direction: 360°N
Pressure: 30.02"   Gusts: NA
Location:  42.86°N, 70.93°W
Report Text: KLWM 280514Z 36006KT 2 1/2SM -SN BR OVC008 M02/M03 A3002 RMK AO2 P0000 T10171028
Loading
Personal Weather Stations






























Interactive Weather Map New forecast layout! Learn more

10-Day Weather Forecast

Advertisements
Track Severe Weather on mobile